Time;durP1;ratioP1;P1;durP2;ratioP2;P2;SDS_P1;SDS_P2;PMS_P1;PMS_P2;Temp;Humidity;BMP_temperature;BMP_pressure;BME280_temperature;BME280_humidity;BME280_pressure;Samples;Min_cycle;Max_cycle;Signal;HPM_P1;HPM_P2
2021/01/07 00:00:00;;;;;;;24.20;10.52;;;;;;;;;;6242955;23;20016;-92
2021/01/07 00:02:45;;;;;;;21.88;10.52;;;;;;;;;;6269084;22;20023;-89
2021/01/07 00:05:28;;;;;;;23.05;11.40;;;;;;;;;;6251183;22;20006;-91
2021/01/07 00:07:58;;;;;;;18.75;12.18;;;;;;;;;;6247188;22;20024;-89
2021/01/07 00:10:31;;;;;;;23.98;12.13;;;;;;;;;;6242142;22;20030;-89
2021/01/07 00:13:03;;;;;;;25.80;15.15;;;;;;;;;;6239873;22;20024;-88
2021/01/07 00:15:43;;;;;;;32.22;12.95;;;;;;;;;;6238833;22;20050;-89
2021/01/07 00:18:13;;;;;;;27.10;10.07;;;;;;;;;;6292540;22;20016;-89
2021/01/07 00:20:45;;;;;;;24.42;12.27;;;;;;;;;;6265202;22;20023;-89
2021/01/07 00:23:22;;;;;;;22.88;13.50;;;;;;;;;;6240304;22;20019;-90
2021/01/07 00:26:06;;;;;;;27.48;11.95;;;;;;;;;;6290389;22;20042;-88
2021/01/07 00:28:37;;;;;;;21.23;11.50;;;;;;;;;;6240594;22;20026;-86
2021/01/07 00:31:20;;;;;;;31.95;12.85;;;;;;;;;;6268239;22;20020;-88
2021/01/07 00:34:09;;;;;;;26.70;11.07;;;;;;;;;;6261560;22;20185;-91
2021/01/07 00:36:43;;;;;;;21.75;12.50;;;;;;;;;;6267235;22;20026;-89
2021/01/07 00:39:29;;;;;;;23.50;13.18;;;;;;;;;;6270019;22;20024;-88
2021/01/07 00:42:15;;;;;;;26.13;13.20;;;2.80;99.90;;;;;;6219324;22;20042;-87
2021/01/07 00:44:51;;;;;;;29.05;13.48;;;;;;;;;;6267969;22;20026;-91
2021/01/07 00:47:43;;;;;;;30.20;12.70;;;;;;;;;;6225161;22;20019;-90
2021/01/07 00:50:25;;;;;;;24.52;14.43;;;;;;;;;;6267609;22;20016;-89
2021/01/07 00:53:18;;;;;;;30.95;12.95;;;3.00;99.90;;;;;;6269197;22;20022;-89
2021/01/07 00:56:08;;;;;;;26.55;11.63;;;;;;;;;;6264852;22;20015;-90
2021/01/07 00:58:54;;;;;;;28.98;13.52;;;;;;;;;;6248578;22;20015;-89
2021/01/07 01:01:44;;;;;;;28.45;12.00;;;;;;;;;;6293932;22;20020;-88
2021/01/07 01:04:58;;;;;;;31.15;13.48;;;;;;;;;;6274331;22;20426;-90
2021/01/07 01:08:00;;;;;;;27.30;13.55;;;;;;;;;;6287136;22;20034;-88
2021/01/07 01:10:47;;;;;;;27.17;12.10;;;;;;;;;;6247270;22;20146;-88
2021/01/07 01:13:26;;;;;;;28.00;14.52;;;;;;;;;;6273492;22;20010;-91
2021/01/07 01:16:00;;;;;;;36.55;14.70;;;;;;;;;;6296102;22;20029;-90
2021/01/07 01:18:52;;;;;;;35.85;14.93;;;;;;;;;;6233405;23;20030;-89
2021/01/07 01:21:44;;;;;;;27.92;13.40;;;;;;;;;;6248241;23;20456;-90
2021/01/07 01:24:37;;;;;;;30.52;15.60;;;;;;;;;;6210747;23;20031;-89
2021/01/07 01:27:48;;;;;;;34.58;15.02;;;;;;;;;;6236134;23;20031;-88
2021/01/07 01:30:34;;;;;;;28.98;13.82;;;;;;;;;;6217937;23;20024;-89
2021/01/07 01:33:10;;;;;;;30.50;15.68;;;;;;;;;;6264445;22;20008;-88
2021/01/07 01:35:51;;;;;;;32.83;18.52;;;;;;;;;;6242628;23;20022;-88
2021/01/07 01:38:28;;;;;;;31.65;14.02;;;;;;;;;;6237715;23;20027;-88
2021/01/07 01:41:16;;;;;;;40.05;15.48;;;;;;;;;;6237746;23;20012;-91
2021/01/07 01:43:48;;;;;;;29.52;14.43;;;;;;;;;;6232148;23;20331;-87
2021/01/07 01:46:31;;;;;;;35.13;15.65;;;;;;;;;;6238381;23;20008;-87
2021/01/07 01:49:12;;;;;;;33.35;15.38;;;2.60;99.90;;;;;;6243823;23;20042;-88
2021/01/07 01:51:56;;;;;;;33.17;14.75;;;;;;;;;;6213744;23;20024;-87
2021/01/07 01:54:30;;;;;;;29.10;13.70;;;;;;;;;;6208771;23;20016;-88
2021/01/07 01:57:02;;;;;;;26.35;11.80;;;;;;;;;;6260756;22;20105;-88
2021/01/07 01:59:35;;;;;;;29.48;13.00;;;2.70;99.90;;;;;;6235144;23;20024;-86
2021/01/07 02:02:10;;;;;;;25.23;13.70;;;;;;;;;;6262498;23;20024;-89
2021/01/07 02:04:46;;;;;;;26.33;12.25;;;;;;;;;;6237340;23;20019;-88
2021/01/07 02:07:25;;;;;;;28.27;12.90;;;2.50;99.90;;;;;;6262601;23;20026;-88
2021/01/07 02:09:57;;;;;;;33.38;13.60;;;;;;;;;;6236516;23;20020;-90
2021/01/07 02:12:27;;;;;;;27.55;14.00;;;;;;;;;;6237327;23;20375;-90
2021/01/07 02:14:58;;;;;;;22.80;12.05;;;;;;;;;;6244198;23;20020;-87
2021/01/07 02:17:29;;;;;;;26.33;13.00;;;;;;;;;;6224297;23;20020;-88
2021/01/07 02:20:04;;;;;;;28.85;14.07;;;;;;;;;;6256240;23;20044;-86
2021/01/07 02:22:38;;;;;;;28.77;12.88;;;;;;;;;;6257640;23;20012;-89
2021/01/07 02:25:33;;;;;;;23.17;11.40;;;;;;;;;;6240847;23;20016;-86
2021/01/07 02:28:21;;;;;;;29.92;12.60;;;;;;;;;;6188730;23;20022;-90
2021/01/07 02:30:50;;;;;;;26.65;12.27;;;;;;;;;;6181391;23;20046;-90
2021/01/07 02:33:21;;;;;;;18.77;11.82;;;;;;;;;;6260172;22;20020;-87
2021/01/07 02:36:00;;;;;;;27.08;15.18;;;2.10;99.90;;;;;;6259173;22;20026;-86
2021/01/07 02:38:31;;;;;;;26.00;11.10;;;;;;;;;;6235860;23;20023;-87
2021/01/07 02:41:06;;;;;;;35.45;16.00;;;2.10;99.90;;;;;;6236743;23;20540;-88
2021/01/07 02:43:46;;;;;;;26.63;14.23;;;;;;;;;;6187498;23;20012;-89
2021/01/07 02:46:20;;;;;;;29.83;13.20;;;;;;;;;;6212522;23;20024;-87
2021/01/07 02:48:59;;;;;;;30.67;12.77;;;2.00;99.90;;;;;;6236436;23;20016;-88
2021/01/07 02:51:30;;;;;;;24.85;11.75;;;;;;;;;;6236886;22;20026;-88
2021/01/07 02:54:05;;;;;;;29.55;12.07;;;2.00;99.90;;;;;;6214914;23;20403;-87
2021/01/07 02:57:02;;;;;;;28.17;14.27;;;;;;;;;;6271805;23;20026;-89
2021/01/07 02:59:50;;;;;;;40.80;13.02;;;;;;;;;;6231019;22;20020;-89
2021/01/07 03:02:23;;;;;;;24.35;12.35;;;;;;;;;;6266310;23;20020;-87
2021/01/07 03:04:58;;;;;;;25.02;14.38;;;;;;;;;;6212217;23;20340;-87
2021/01/07 03:07:45;;;;;;;23.00;11.93;;;1.80;99.90;;;;;;6189197;23;20016;-86
2021/01/07 03:10:21;;;;;;;23.80;12.32;;;1.80;99.90;;;;;;6186523;23;20609;-89
2021/01/07 03:12:53;;;;;;;26.40;13.68;;;;;;;;;;6236133;23;20016;-90
2021/01/07 03:15:23;;;;;;;28.35;12.82;;;;;;;;;;6237186;23;20030;-89
2021/01/07 03:17:53;;;;;;;27.63;13.43;;;;;;;;;;6211033;23;20440;-87
2021/01/07 03:20:25;;;;;;;30.52;14.50;;;;;;;;;;6236110;23;20438;-89
2021/01/07 03:23:01;;;;;;;28.85;13.52;;;;;;;;;;6237765;23;20024;-91
2021/01/07 03:25:29;;;;;;;31.75;14.10;;;;;;;;;;6210525;23;20424;-89
2021/01/07 03:28:00;;;;;;;28.27;15.70;;;;;;;;;;6237265;23;20018;-88
2021/01/07 03:30:29;;;;;;;31.85;14.82;;;;;;;;;;6211524;23;20267;-89
2021/01/07 03:33:04;;;;;;;31.13;15.73;;;;;;;;;;6187788;23;20024;-87
2021/01/07 03:35:38;;;;;;;38.65;16.23;;;1.40;99.90;;;;;;6235582;23;20561;-89
2021/01/07 03:38:14;;;;;;;36.10;18.35;;;;;;;;;;6237953;23;20016;-88
2021/01/07 03:40:50;;;;;;;33.25;15.32;;;;;;;;;;6235149;23;20307;-89
2021/01/07 03:43:27;;;;;;;33.13;14.40;;;;;;;;;;6260019;23;20024;-88
2021/01/07 03:46:00;;;;;;;36.40;16.40;;;;;;;;;;6209305;23;20008;-88
2021/01/07 03:48:29;;;;;;;28.70;14.98;;;;;;;;;;6233865;23;20016;-87
2021/01/07 03:51:06;;;;;;;33.50;16.35;;;;;;;;;;6235019;23;20087;-89
2021/01/07 03:53:39;;;;;;;36.53;14.73;;;;;;;;;;6234860;23;20017;-89
2021/01/07 03:56:08;;;;;;;;;;;1.50;99.90;;;;;;6261208;23;20020;-89
2021/01/07 03:58:43;;;;;;;34.03;14.35;;;;;;;;;;6261066;23;20313;-87
2021/01/07 04:01:15;;;;;;;34.75;16.00;;;;;;;;;;6258630;22;20478;-88
2021/01/07 04:03:44;;;;;;;33.10;15.40;;;;;;;;;;6209128;23;20473;-93
2021/01/07 04:06:15;;;;;;;33.55;14.50;;;;;;;;;;6232951;23;20016;-92
2021/01/07 04:08:53;;;;;;;31.25;16.42;;;;;;;;;;6211192;23;20026;-89
2021/01/07 04:11:22;;;;;;;34.03;15.45;;;;;;;;;;6257954;23;20022;-88
2021/01/07 04:14:08;;;;;;;32.75;13.90;;;;;;;;;;6231760;23;20026;-89
2021/01/07 04:16:45;;;;;;;33.70;14.75;;;;;;;;;;6210737;23;20210;-90
2021/01/07 04:19:13;;;;;;;30.80;15.73;;;;;;;;;;6259537;22;20016;-86
2021/01/07 04:21:49;;;;;;;29.77;14.35;;;;;;;;;;6212402;23;20020;-87
2021/01/07 04:24:38;;;;;;;31.88;15.07;;;;;;;;;;6261305;23;20020;-89
2021/01/07 04:27:15;;;;;;;29.42;13.30;;;;;;;;;;6234978;23;20016;-90
2021/01/07 04:29:52;;;;;;;36.00;16.90;;;;;;;;;;6210466;23;20023;-90
2021/01/07 04:32:44;;;;;;;39.60;15.88;;;;;;;;;;6260974;22;20024;-87
2021/01/07 04:35:21;;;;;;;37.00;16.38;;;;;;;;;;6211043;23;20020;-87
2021/01/07 04:37:53;;;;;;;33.17;14.90;;;;;;;;;;6209161;23;20024;-89
2021/01/07 04:40:33;;;;;;;34.63;15.55;;;;;;;;;;6185856;23;20012;-89
2021/01/07 04:43:16;;;;;;;32.83;15.95;;;;;;;;;;6210821;23;20024;-88
2021/01/07 04:45:49;;;;;;;34.13;14.98;;;;;;;;;;6207477;23;20016;-91
2021/01/07 04:48:24;;;;;;;36.45;16.60;;;1.90;99.90;;;;;;6230818;23;20030;-90
2021/01/07 04:50:59;;;;;;;34.08;14.45;;;;;;;;;;6256368;23;20026;-89
2021/01/07 04:53:31;;;;;;;32.90;14.13;;;;;;;;;;6256741;23;20026;-88
2021/01/07 04:56:03;;;;;;;28.02;12.82;;;;;;;;;;6255823;22;20356;-86
2021/01/07 04:58:31;;;;;;;36.35;15.82;;;;;;;;;;6237239;22;20026;-88
2021/01/07 05:01:04;;;;;;;28.55;14.63;;;;;;;;;;6263865;22;20024;-91
2021/01/07 05:03:36;;;;;;;35.35;15.20;;;1.90;99.90;;;;;;6265595;22;20012;-88
2021/01/07 05:06:26;;;;;;;32.00;16.27;;;;;;;;;;6246025;22;20030;-89
2021/01/07 05:09:05;;;;;;;39.63;15.13;;;;;;;;;;6240368;22;20025;-87
2021/01/07 05:11:42;;;;;;;34.63;15.00;;;;;;;;;;6281391;22;20012;-88
2021/01/07 05:14:18;;;;;;;41.38;17.10;;;;;;;;;;6284949;22;20026;-87
2021/01/07 05:16:50;;;;;;;34.75;17.00;;;;;;;;;;6290565;22;20016;-88
2021/01/07 05:19:20;;;;;;;34.95;17.13;;;;;;;;;;6233535;22;20019;-90
2021/01/07 05:21:54;;;;;;;42.30;16.92;;;1.90;99.90;;;;;;6259737;22;20024;-89
2021/01/07 05:24:39;;;;;;;33.75;15.77;;;1.80;99.90;;;;;;6241405;22;20016;-87
2021/01/07 05:27:18;;;;;;;34.33;14.45;;;;;;;;;;6236485;22;20012;-90
2021/01/07 05:30:02;;;;;;;45.63;17.55;;;2.00;99.90;;;;;;6264598;22;20033;-88
2021/01/07 05:32:44;;;;;;;32.13;14.65;;;2.00;99.90;;;;;;6264114;22;20016;-88
2021/01/07 05:35:22;;;;;;;37.13;18.58;;;;;;;;;;6213918;22;20026;-88
2021/01/07 05:38:03;;;;;;;37.85;17.83;;;2.20;99.90;;;;;;6262681;22;20016;-88
2021/01/07 05:40:51;;;;;;;47.70;17.42;;;2.10;99.90;;;;;;6265140;22;20020;-87
2021/01/07 05:43:28;;;;;;;35.22;15.88;;;2.20;99.90;;;;;;6237457;22;20020;-88
2021/01/07 05:45:58;;;;;;;37.13;16.58;;;;;;;;;;6290156;22;20019;-89
2021/01/07 05:48:31;;;;;;;39.28;16.05;;;;;;;;;;6234696;22;20015;-89
2021/01/07 05:51:08;;;;;;;34.33;18.55;;;;;;;;;;6260978;22;20022;-90
2021/01/07 05:53:37;;;;;;;34.80;15.10;;;;;;;;;;6260768;22;20016;-88
2021/01/07 05:56:19;;;;;;;39.90;18.27;;;2.00;99.90;;;;;;6236771;22;20011;-88
2021/01/07 05:58:51;;;;;;;40.92;18.65;;;2.00;99.90;;;;;;6238910;22;20030;-88
2021/01/07 06:01:45;;;;;;;35.47;18.35;;;2.00;99.90;;;;;;6212826;22;20031;-89
2021/01/07 06:04:20;;;;;;;40.30;17.77;;;2.00;99.90;;;;;;6263088;22;20020;-86
2021/01/07 06:06:52;;;;;;;41.97;17.90;;;;;;;;;;6240056;22;20012;-88
2021/01/07 06:09:29;;;;;;;37.72;17.55;;;2.10;99.90;;;;;;6273114;22;20012;-87
2021/01/07 06:12:04;;;;;;;38.50;19.23;;;;;;;;;;6273583;22;20027;-88
2021/01/07 06:14:47;;;;;;;46.03;16.85;;;;;;;;;;6289585;22;20023;-87
2021/01/07 06:17:23;;;;;;;35.22;19.27;;;;;;;;;;6296504;22;20022;-88
2021/01/07 06:19:55;;;;;;;39.47;18.23;;;;;;;;;;6296507;22;20157;-88
2021/01/07 06:22:32;;;;;;;39.63;17.33;;;2.10;99.90;;;;;;6294969;22;20019;-89
2021/01/07 06:25:11;;;;;;;43.58;19.15;;;;;;;;;;6250740;22;20042;-90
2021/01/07 06:27:56;;;;;;;47.03;16.15;;;;;;;;;;6295028;22;20015;-86
2021/01/07 06:30:28;;;;;;;39.70;19.25;;;;;;;;;;6271658;22;20771;-91
2021/01/07 06:33:10;;;;;;;47.00;18.70;;;2.00;99.90;;;;;;6241718;22;20019;-87
2021/01/07 06:35:44;;;;;;;40.70;18.33;;;;;;;;;;6246179;22;20015;-88
2021/01/07 06:38:26;;;;;;;38.75;18.58;;;2.00;99.90;;;;;;6317418;22;20455;-86
2021/01/07 06:41:04;;;;;;;40.90;18.00;;;;;;;;;;6312140;22;20018;-87
2021/01/07 06:43:35;;;;;;;;;;;1.60;99.90;;;;;;6316969;22;20015;-88
2021/01/07 06:46:07;;;;;;;37.08;16.95;;;;;;;;;;6313158;22;19918;-88
2021/01/07 06:48:41;;;;;;;40.35;19.92;;;;;;;;;;6269215;22;20390;-88
2021/01/07 06:51:15;;;;;;;42.03;17.67;;;;;;;;;;6321466;22;20019;-89
2021/01/07 06:54:08;;;;;;;41.10;17.55;;;1.90;99.90;;;;;;6265699;22;20025;-88
2021/01/07 06:56:41;;;;;;;38.00;18.90;;;1.90;99.90;;;;;;6323204;22;20015;-89
2021/01/07 06:59:30;;;;;;;35.22;16.58;;;;;;;;;;6324781;22;20019;-87
2021/01/07 07:02:11;;;;;;;39.17;15.57;;;;;;;;;;6324219;22;20015;-89
2021/01/07 07:04:47;;;;;;;39.80;17.05;;;;;;;;;;6296355;22;20023;-89
2021/01/07 07:07:46;;;;;;;42.95;20.02;;;;;;;;;;6321624;22;20475;-89
2021/01/07 07:10:49;;;;;;;39.15;17.52;;;;;;;;;;6319522;22;20114;-88
2021/01/07 07:13:31;;;;;;;38.20;17.75;;;1.90;99.90;;;;;;6297228;22;20045;-89
2021/01/07 07:16:03;;;;;;;46.03;22.75;;;;;;;;;;6320196;22;20025;-88
2021/01/07 07:18:35;;;;;;;49.78;20.27;;;1.90;99.90;;;;;;6315917;22;20029;-90
2021/01/07 07:21:35;;;;;;;33.30;15.27;;;;;;;;;;6334292;22;20030;-88
2021/01/07 07:24:14;;;;;;;43.83;18.60;;;1.70;99.90;;;;;;6296264;22;20015;-88
2021/01/07 07:26:44;;;;;;;44.42;18.85;;;;;;;;;;6284740;22;20023;-87
2021/01/07 07:29:15;;;;;;;35.43;16.40;;;;;;;;;;6267424;22;20016;-86
2021/01/07 07:32:14;;;;;;;48.10;20.73;;;;;;;;;;6244643;22;20259;-88
2021/01/07 07:34:54;;;;;;;45.28;19.67;;;1.90;99.90;;;;;;6267464;22;20030;-86
2021/01/07 07:37:26;;;;;;;37.17;18.27;;;1.70;99.90;;;;;;6266264;22;20024;-87
2021/01/07 07:40:45;;;;;;;37.10;16.08;;;1.80;99.90;;;;;;6261789;22;20016;-87
2021/01/07 07:43:19;;;;;;;48.22;18.65;;;;;;;;;;6253678;22;20020;-91
2021/01/07 07:45:50;;;;;;;43.40;18.83;;;;;;;;;;6210821;23;20020;-88
2021/01/07 07:48:46;;;;;;;39.17;18.13;;;;;;;;;;6248559;23;20034;-87
2021/01/07 07:51:18;;;;;;;48.97;19.15;;;;;;;;;;6215898;23;20020;-90
2021/01/07 07:54:16;;;;;;;44.15;19.42;;;1.80;99.90;;;;;;6208954;23;20034;-87
2021/01/07 07:57:18;;;;;;;45.50;22.20;;;1.90;99.90;;;;;;6217495;23;20012;-88
2021/01/07 08:00:20;;;;;;;43.63;17.85;;;;;;;;;;6247341;23;20031;-87
2021/01/07 08:03:41;;;;;;;44.67;20.23;;;1.70;99.90;;;;;;6216207;23;20027;-87
2021/01/07 08:06:31;;;;;;;44.45;19.20;;;;;;;;;;6214928;23;20016;-86
2021/01/07 08:09:22;;;;;;;43.75;18.38;;;;;;;;;;6239212;23;20016;-86
2021/01/07 08:12:02;;;;;;;44.45;18.27;;;;;;;;;;6262502;23;20020;-88
2021/01/07 08:14:57;;;;;;;45.50;20.73;;;1.80;99.90;;;;;;6215441;23;20024;-88
2021/01/07 08:17:43;;;;;;;43.77;17.90;;;;;;;;;;6219461;23;20020;-85
2021/01/07 08:20:30;;;;;;;38.03;16.20;;;1.80;99.90;;;;;;6213354;23;20012;-86
2021/01/07 08:23:20;;;;;;;42.97;18.42;;;2.00;99.90;;;;;;6264306;23;20024;-87
2021/01/07 08:26:37;;;;;;;43.33;18.02;;;1.70;99.90;;;;;;6242661;23;20008;-86
2021/01/07 08:29:15;;;;;;;57.75;22.30;;;;;;;;;;6265659;23;20028;-88
2021/01/07 08:32:30;;;;;;;44.43;18.23;;;1.80;99.90;;;;;;6240564;22;20016;-85
2021/01/07 08:35:24;;;;;;;41.22;17.17;;;;;;;;;;6269047;23;20072;-86
2021/01/07 08:38:38;;;;;;;54.00;19.60;;;1.80;99.90;;;;;;6237083;23;20027;-86
2021/01/07 08:41:21;;;;;;;42.15;18.48;;;2.00;99.90;;;;;;6240139;23;20015;-87
2021/01/07 08:44:33;;;;;;;41.38;16.25;;;2.10;99.90;;;;;;6287230;22;20015;-86
2021/01/07 08:47:23;;;;;;;44.13;20.52;;;;;;;;;;6264346;22;20585;-87
2021/01/07 08:50:21;;;;;;;40.38;17.50;;;1.80;99.90;;;;;;6202285;22;20020;-87
2021/01/07 08:53:14;;;;;;;48.22;21.73;;;;;;;;;;6287440;22;20042;-88
2021/01/07 08:56:37;;;;;;;38.08;15.98;;;2.00;99.90;;;;;;6244034;22;20024;-89
2021/01/07 08:59:26;;;;;;;41.17;17.42;;;;;;;;;;6258289;22;20015;-88
2021/01/07 09:02:21;;;;;;;52.88;21.98;;;1.90;99.90;;;;;;6233813;22;20026;-88
2021/01/07 09:05:07;;;;;;;50.13;20.17;;;;;;;;;;6209868;23;20024;-86
2021/01/07 09:07:39;;;;;;;51.17;20.10;;;;;;;;;;6205408;23;20016;-88
2021/01/07 09:10:29;;;;;;;50.92;18.98;;;;;;;;;;6206551;23;20024;-87
2021/01/07 09:13:24;;;;;;;39.05;20.75;;;2.10;99.90;;;;;;6234373;23;20016;-87
2021/01/07 09:16:16;;;;;;;47.78;18.40;;;;;;;;;;6233292;23;20027;-87
2021/01/07 09:19:06;;;;;;;39.95;19.35;;;1.90;99.90;;;;;;6257868;23;20018;-85
2021/01/07 09:22:04;;;;;;;43.17;18.50;;;2.20;99.90;;;;;;6252636;23;20030;-87
2021/01/07 09:24:36;;;;;;;37.30;16.75;;;;;;;;;;6228745;23;20016;-88
2021/01/07 09:27:20;;;;;;;41.53;19.25;;;2.20;99.90;;;;;;6261605;23;20038;-86
2021/01/07 09:29:51;;;;;;;53.40;18.23;;;;;;;;;;6181039;23;20019;-87
2021/01/07 09:32:25;;;;;;;42.25;20.88;;;;;;;;;;6201148;23;20017;-88
2021/01/07 09:34:59;;;;;;;45.72;19.20;;;;;;;;;;6204450;23;20028;-88
2021/01/07 09:37:46;;;;;;;47.42;18.98;;;;;;;;;;6227957;23;20018;-87
2021/01/07 09:40:18;;;;;;;43.40;18.90;;;2.20;99.90;;;;;;6177911;23;20027;-88
2021/01/07 09:42:57;;;;;;;46.90;21.10;;;;;;;;;;6205271;23;20028;-87
2021/01/07 09:45:31;;;;;;;50.80;19.88;;;;;;;;;;6177758;23;20111;-88
2021/01/07 09:48:14;;;;;;;47.40;21.60;;;;;;;;;;6179639;23;20017;-88
2021/01/07 09:50:47;;;;;;;45.00;20.85;;;;;;;;;;6225745;23;20024;-89
2021/01/07 09:53:17;;;;;;;44.72;17.70;;;;;;;;;;6219117;23;20004;-87
2021/01/07 09:55:45;;;;;;;38.70;16.45;;;;;;;;;;6200118;23;20013;-88
2021/01/07 09:58:19;;;;;;;43.75;20.45;;;;;;;;;;6223144;23;20024;-89
2021/01/07 10:00:58;;;;;;;43.65;20.20;;;;;;;;;;6226133;23;20017;-90
2021/01/07 10:03:49;;;;;;;49.53;21.13;;;;;;;;;;6161507;23;20397;-89
2021/01/07 10:06:31;;;;;;;42.35;19.75;;;;;;;;;;6148676;23;20028;-91
2021/01/07 10:54:13;;;;;;;43.20;18.40;;;;;;;;;;6197438;22;20030;-88
2021/01/07 10:57:41;;;;;;;37.63;17.52;;;2.70;99.90;;;;;;6269292;22;20033;-89
2021/01/07 11:00:44;;;;;;;51.78;22.83;;;;;;;;;;6248929;22;20015;-89
2021/01/07 11:04:07;;;;;;;49.50;20.35;;;2.80;99.90;;;;;;6312694;22;20023;-90
2021/01/07 11:06:56;;;;;;;54.63;22.70;;;;;;;;;;6334224;22;20011;-88
2021/01/07 11:10:05;;;;;;;32.55;16.92;;;2.90;99.90;;;;;;6270843;22;20019;-85
2021/01/07 11:13:00;;;;;;;45.10;19.02;;;2.90;99.90;;;;;;6234568;22;20023;-85
2021/01/07 11:15:31;;;;;;;43.80;18.67;;;;;;;;;;6286575;22;20019;-87
2021/01/07 11:17:58;;;;;;;53.67;21.48;;;;;;;;;;6260520;22;20015;-85
2021/01/07 11:20:31;;;;;;;44.05;19.20;;;2.90;99.90;;;;;;6313219;22;20030;-86
2021/01/07 11:23:06;;;;;;;46.20;18.17;;;3.00;99.90;;;;;;6289971;22;20015;-86
2021/01/07 11:25:39;;;;;;;48.97;19.60;;;2.90;99.90;;;;;;6288511;22;20019;-85
2021/01/07 11:28:11;;;;;;;51.40;19.77;;;;;;;;;;6316388;22;20019;-85
2021/01/07 11:30:41;;;;;;;48.95;19.88;;;2.90;99.90;;;;;;6288939;22;20020;-86
2021/01/07 11:33:20;;;;;;;48.60;19.65;;;;;;;;;;6278761;22;20015;-86
2021/01/07 11:36:03;;;;;;;43.63;18.73;;;3.30;99.90;;;;;;6291857;22;20029;-86
2021/01/07 11:38:44;;;;;;;41.08;18.30;;;3.10;99.90;;;;;;6321004;22;20439;-86
2021/01/07 11:41:52;;;;;;;41.63;19.75;;;3.20;99.90;;;;;;6288955;22;20019;-86
2021/01/07 11:45:03;;;;;;;41.50;18.63;;;3.30;99.90;;;;;;6312977;22;20015;-84
2021/01/07 11:47:54;;;;;;;42.72;21.63;;;3.30;99.90;;;;;;6157679;23;20014;-87
2021/01/07 11:50:30;;;;;;;43.58;18.67;;;;;;;;;;6138617;23;20032;-89
2021/01/07 11:53:09;;;;;;;44.63;22.35;;;;;;;;;;6218000;22;20019;-85
2021/01/07 11:55:39;;;;;;;43.85;19.75;;;;;;;;;;6266597;22;20351;-88
2021/01/07 11:58:22;;;;;;;53.58;21.63;;;;;;;;;;6260576;22;20030;-85
2021/01/07 12:00:54;;;;;;;42.42;17.98;;;;;;;;;;6231654;22;20023;-89
2021/01/07 12:03:29;;;;;;;50.67;20.00;;;3.30;99.90;;;;;;6289213;22;20019;-85
2021/01/07 12:06:02;;;;;;;41.72;18.95;;;3.50;99.90;;;;;;6266476;22;20042;-86
2021/01/07 12:08:29;;;;;;;36.80;17.85;;;;;;;;;;6267818;22;20026;-85
2021/01/07 12:10:59;;;;;;;41.25;17.70;;;;;;;;;;6264962;22;20020;-86
2021/01/07 12:13:50;;;;;;;50.28;18.10;;;3.50;99.90;;;;;;6261183;22;20258;-87
2021/01/07 12:16:25;;;;;;;43.25;19.10;;;;;;;;;;6286704;22;20022;-84
2021/01/07 12:19:01;;;;;;;35.80;19.73;;;;;;;;;;6240763;22;20023;-88
2021/01/07 12:21:33;;;;;;;41.72;18.65;;;;;;;;;;6237070;22;20024;-84
2021/01/07 12:24:08;;;;;;;39.70;16.52;;;3.50;99.90;;;;;;6234842;22;20016;-88
2021/01/07 12:26:37;;;;;;;40.10;17.73;;;;;;;;;;6209849;22;20026;-88
2021/01/07 12:29:05;;;;;;;36.80;16.55;;;;;;;;;;6238756;22;20012;-85
2021/01/07 12:31:37;;;;;;;32.40;15.90;;;3.40;99.90;;;;;;6282724;22;20020;-86
2021/01/07 12:34:25;;;;;;;41.53;16.90;;;;;;;;;;6256022;22;20023;-87
2021/01/07 12:37:13;;;;;;;36.33;17.45;;;;;;;;;;6259807;22;20019;-85
2021/01/07 12:39:44;;;;;;;32.15;16.23;;;;;;;;;;6256411;22;20034;-86
2021/01/07 12:42:21;;;;;;;31.05;15.27;;;3.50;99.90;;;;;;6288448;22;20344;-85
2021/01/07 12:44:53;;;;;;;37.00;17.23;;;;;;;;;;6255127;22;20019;-88
2021/01/07 12:47:33;;;;;;;38.38;15.93;;;3.70;99.90;;;;;;6233414;22;20016;-87
2021/01/07 12:50:11;;;;;;;38.67;17.70;;;3.60;99.90;;;;;;6181301;22;20068;-86
2021/01/07 12:52:44;;;;;;;39.75;16.65;;;;;;;;;;6185603;22;20015;-90
2021/01/07 12:55:14;;;;;;;37.03;17.25;;;;;;;;;;6273831;22;20022;-88
2021/01/07 12:58:01;;;;;;;37.42;16.77;;;3.60;99.90;;;;;;6288278;22;20025;-89
2021/01/07 13:01:05;;;;;;;39.17;18.00;;;3.70;99.90;;;;;;6316308;22;20459;-88
2021/01/07 13:03:55;;;;;;;38.97;16.83;;;;;;;;;;6291475;22;20015;-91
2021/01/07 13:06:50;;;;;;;34.10;14.93;;;3.70;99.90;;;;;;6262495;22;20015;-89
2021/01/07 13:09:26;;;;;;;28.52;12.73;;;;;;;;;;6289925;22;20027;-87
2021/01/07 13:11:55;;;;;;;36.03;17.88;;;;;;;;;;6289445;22;20021;-89
2021/01/07 13:14:28;;;;;;;35.88;16.98;;;3.80;99.90;;;;;;6287186;22;20022;-89
2021/01/07 13:17:00;;;;;;;42.88;20.67;;;;;;;;;;6287639;22;20427;-87
2021/01/07 13:19:28;;;;;;;31.67;16.60;;;;;;;;;;6313304;22;20023;-88
2021/01/07 13:21:58;;;;;;;33.17;16.45;;;;;;;;;;6285545;22;20015;-87
2021/01/07 13:24:28;;;;;;;35.10;14.68;;;;;;;;;;6313882;22;20023;-88
2021/01/07 13:26:58;;;;;;;32.70;14.02;;;;;;;;;;6313852;22;20023;-85
2021/01/07 13:29:27;;;;;;;33.60;16.90;;;;;;;;;;6309994;22;20015;-86
2021/01/07 13:32:01;;;;;;;41.10;16.73;;;;;;;;;;6315423;22;20374;-85
2021/01/07 13:34:43;;;;;;;37.65;17.33;;;4.90;99.90;;;;;;6312479;22;20015;-87
2021/01/07 13:37:23;;;;;;;43.05;20.10;;;4.20;99.90;;;;;;6267575;22;20015;-87
2021/01/07 13:39:55;;;;;;;37.45;16.67;;;4.00;99.90;;;;;;6266352;22;20015;-86
2021/01/07 13:42:27;;;;;;;38.33;19.00;;;;;;;;;;6291480;22;20015;-88
2021/01/07 13:44:58;;;;;;;28.88;16.52;;;4.30;99.90;;;;;;6317278;22;20587;-89
2021/01/07 13:47:34;;;;;;;30.60;15.55;;;4.20;99.90;;;;;;6266084;22;20023;-89
2021/01/07 13:50:12;;;;;;;31.98;13.88;;;4.40;99.90;;;;;;6314848;22;20011;-87
2021/01/07 13:52:47;;;;;;;31.42;15.68;;;4.30;99.90;;;;;;6238083;22;20019;-88
2021/01/07 13:55:21;;;;;;;38.80;15.68;;;4.70;99.90;;;;;;6314591;22;20027;-88
2021/01/07 13:57:51;;;;;;;42.22;17.23;;;;;;;;;;6285837;22;20022;-84
2021/01/07 14:00:21;;;;;;;33.78;16.67;;;;;;;;;;6317065;22;20015;-89
2021/01/07 14:02:56;;;;;;;37.75;18.25;;;;;;;;;;6290520;22;20015;-87
2021/01/07 14:05:37;;;;;;;31.10;16.02;;;4.60;99.90;;;;;;6320801;22;20025;-90
2021/01/07 14:08:14;;;;;;;35.95;15.43;;;;;;;;;;6293329;22;20011;-86
2021/01/07 14:10:48;;;;;;;29.40;14.98;;;4.40;99.90;;;;;;6319378;22;20023;-89
2021/01/07 14:13:20;;;;;;;34.90;15.57;;;;;;;;;;6324011;22;20015;-86
2021/01/07 14:16:07;;;;;;;30.27;15.70;;;;;;;;;;6320101;22;20025;-89
2021/01/07 14:18:38;;;;;;;34.38;14.05;;;;;;;;;;6321939;22;20019;-89
2021/01/07 14:21:08;;;;;;;33.53;16.17;;;4.20;99.90;;;;;;6295064;22;20015;-87
2021/01/07 14:23:40;;;;;;;25.55;14.05;;;;;;;;;;6294681;22;20015;-87
2021/01/07 14:26:11;;;;;;;32.95;15.63;;;4.30;99.90;;;;;;6319015;22;19999;-89
2021/01/07 14:28:53;;;;;;;33.67;14.93;;;4.30;99.90;;;;;;6267657;22;20019;-87
2021/01/07 14:31:23;;;;;;;29.33;14.23;;;;;;;;;;6298888;22;20015;-89
2021/01/07 14:33:55;;;;;;;32.47;16.95;;;4.30;99.90;;;;;;6318730;22;20011;-89
2021/01/07 14:36:26;;;;;;;33.33;15.77;;;;;;;;;;6320771;22;20026;-87
2021/01/07 14:39:01;;;;;;;41.90;17.50;;;;;;;;;;6322661;22;20015;-89
2021/01/07 14:41:33;;;;;;;35.22;14.68;;;;;;;;;;6297816;22;20015;-87
2021/01/07 14:44:03;;;;;;;32.13;16.30;;;;;;;;;;6313840;22;20015;-89
2021/01/07 14:46:35;;;;;;;32.05;13.90;;;;;;;;;;6321793;22;20015;-88
2021/01/07 14:49:19;;;;;;;25.42;12.50;;;4.10;99.90;;;;;;6317175;22;20019;-90
2021/01/07 14:51:52;;;;;;;32.47;16.10;;;;;;;;;;6320624;22;20327;-88
2021/01/07 14:54:20;;;;;;;32.70;15.73;;;;;;;;;;6283926;22;20023;-88
2021/01/07 14:56:55;;;;;;;32.05;13.23;;;4.00;99.90;;;;;;6309751;22;20016;-89
2021/01/07 14:59:24;;;;;;;45.20;18.42;;;;;;;;;;6291539;22;20019;-87
2021/01/07 15:02:15;;;;;;;35.70;15.60;;;;;;;;;;6293721;22;20019;-87
2021/01/07 15:05:23;;;;;;;44.08;17.85;;;3.60;99.90;;;;;;6324168;22;20013;-88
2021/01/07 15:07:58;;;;;;;38.78;14.77;;;;;;;;;;6294319;22;20126;-87
2021/01/07 15:10:28;;;;;;;34.97;15.68;;;;;;;;;;6321967;22;20030;-89
2021/01/07 15:13:09;;;;;;;31.65;15.70;;;;;;;;;;6294056;22;20021;-85
2021/01/07 15:16:07;;;;;;;30.73;15.50;;;3.50;99.90;;;;;;6266913;22;20041;-86
2021/01/07 15:18:54;;;;;;;34.90;16.20;;;3.40;99.90;;;;;;6291920;22;20015;-86
2021/01/07 15:21:29;;;;;;;35.50;17.77;;;;;;;;;;6292229;22;20019;-84
2021/01/07 15:24:21;;;;;;;33.35;16.42;;;;;;;;;;6293415;22;20015;-86
2021/01/07 15:27:01;;;;;;;39.60;18.48;;;;;;;;;;6314374;22;20025;-87
2021/01/07 15:29:40;;;;;;;38.88;20.08;;;;;;;;;;6293347;22;20015;-89
2021/01/07 15:32:31;;;;;;;36.50;16.95;;;3.30;99.90;;;;;;6315406;22;20022;-88
2021/01/07 15:35:11;;;;;;;39.13;15.10;;;3.00;99.90;;;;;;6313017;22;20023;-88
2021/01/07 15:38:18;;;;;;;39.10;19.40;;;3.10;99.90;;;;;;6292765;22;20023;-87
2021/01/07 15:41:20;;;;;;;;;;;3.20;99.90;;;;;;6322844;22;20025;-88